Terminal Aerodrome Forecast
Issued by NWS Wilmington, OH

Current Version | Previous Version | Text Only | Print | Product List | Glossary Off
Versions: 1 2 3 4 5 6 7 8 9 10 11 12 13 14 15 16 17 18 19 20 21 22 23 24 25 26 27 28

726
FTUS41 KILN 152328
TAFDAY
TAF
KDAY 152328Z 1600/1624 23013G22KT P6SM VCTS OVC025CB
      TEMPO 1600/1603 4SM SHRA OVC025
     FM160400 25012G20KT 3SM SHRA OVC012
     FM160600 31012G18KT 5SM -SHRA OVC015
     FM161100 34012KT P6SM VCSH OVC015
     FM161400 34012G18KT P6SM BKN018
     FM161900 34012G18KT P6SM SCT025=

USA.gov is the U.S. government's official web portal to all federal, state and local government web resources and services.